Ghardaia, Algeria
Current Conditions -  °F | °C
As of 2:00 PM on Tuesday 21 Oct 2014 (Local Time) from DAUG Reporting Station
Clear Clear  
Wind Chill: 33°   Ceiling: Unl
Heat Index: 33°   Visibility: 6mi
Dew Point:   Wind: 9mph
Humidity: 12%   Direction: 360°N
Pressure: 30.09"   Gusts: NA
Location:  32.49°N, 3.68°E
Report Text: DAUG 211300Z 36008KT CAVOK 33/00 Q1019
Loading
Personal Weather Stations






























Interactive Weather Map
Tropical Storm Tracking
New forecast layout! Learn more

10-Day Weather Forecast

Advertisements
Track Severe Weather on mobile